Česky Dansk Deutsch English Espańol Suomi Français Magyar Italiano Nederlands norsk Polski Portuguęs svenska Türkçe

 

Het Weer

Lossiemouth (Groot Britanië)

16:50, 21 juli 2016 (GMT)

NWNNE
WE
SWSSE
Home            
Lossiemouth Kinloss Tain Range Inverness / Dalcross Wick Aberdeen / Dyce Kirkwall Airport Perth / Scone Dundee / Riverside Leuchars Stornoway Edinburgh Airport Glasgow Airport Benbecula Tiree Prestwick Airport Sumburgh Cape Boulmer Islay Campbeltown Machrihanish Spadeadam Carlisle

Om een weerknop op uw website of weblog te plaatsen, copieer onderstaande code en plak die in uw pagina. In het eerste vakje staat HTML-code, in het tweede vakje UBB-code.


Add to Google

Details

Wind speed:4 bf, 11 kn, 5.7 m/s, 12.7 miles/h, 20.4 km/h
Wind direction:E, 090°
Láthatóság általában:Nagyobb, mint 10000 m, 10 km, 32800 ft, 6.2 miles
Clouds:Néhány at 4000 ft, 1219 m
Szórványos at 6000 ft, 1829 m
Hőmérséklet:18°C, 64°F
Harmatpont:12°C, 54°F
Légköri nyomás:1013 hPa, 759.8 mmHg, 29.91 inHg, 1.000 atm
Relatív páratartalom:68.0 %
METAR:EGQS 211650Z 09011KT 9999 FEW040 SCT060 18/12 Q1013 BLU NOSIG

Snelkoppelingen

Actuele weersinformatie van de hele wereld. Voeg locaties toe met het plus (+) symbool. Deze snelkoppelingen kunnen worden toegevoegd aan Google.

Lid van de Technetium groep

website free tracking
StatCounter NetStat W3C Validator

27-09-2022 04:10:13
astro.technetium.be money.technetium.be phote.technetium.be tafeltennistafel.technetium.be www.ligfiets.net